sensor_id;sensor_type;location;lat;lon;timestamp;temperature;humidity
30385;DHT22;17181;51.002;4.096;2023-08-06T00:01:55;16.60;99.90
30385;DHT22;17181;51.002;4.096;2023-08-06T00:04:21;16.60;99.90
30385;DHT22;17181;51.002;4.096;2023-08-06T00:06:47;16.50;99.90
30385;DHT22;17181;51.002;4.096;2023-08-06T00:09:13;16.60;99.90
30385;DHT22;17181;51.002;4.096;2023-08-06T00:11:39;16.60;99.90
30385;DHT22;17181;51.002;4.096;2023-08-06T00:14:06;16.60;99.90
30385;DHT22;17181;51.002;4.096;2023-08-06T00:16:32;16.70;99.90
30385;DHT22;17181;51.002;4.096;2023-08-06T00:18:58;16.50;99.90
30385;DHT22;17181;51.002;4.096;2023-08-06T00:21:24;16.50;99.90
30385;DHT22;17181;51.002;4.096;2023-08-06T00:23:49;16.50;99.90
30385;DHT22;17181;51.002;4.096;2023-08-06T00:26:16;16.40;99.90
30385;DHT22;17181;51.002;4.096;2023-08-06T00:28:42;16.40;99.90
30385;DHT22;17181;51.002;4.096;2023-08-06T00:31:08;16.40;99.90
30385;DHT22;17181;51.002;4.096;2023-08-06T00:33:34;16.40;99.90
30385;DHT22;17181;51.002;4.096;2023-08-06T00:36:00;16.40;99.90
30385;DHT22;17181;51.002;4.096;2023-08-06T00:38:25;16.40;99.90
30385;DHT22;17181;51.002;4.096;2023-08-06T00:40:51;16.40;99.90
30385;DHT22;17181;51.002;4.096;2023-08-06T00:43:18;16.30;99.90
30385;DHT22;17181;51.002;4.096;2023-08-06T00:45:44;16.30;99.90
30385;DHT22;17181;51.002;4.096;2023-08-06T00:48:10;16.30;99.90
30385;DHT22;17181;51.002;4.096;2023-08-06T00:50:36;16.30;99.90
30385;DHT22;17181;51.002;4.096;2023-08-06T00:53:02;16.30;99.90
30385;DHT22;17181;51.002;4.096;2023-08-06T00:55:29;16.30;99.90
30385;DHT22;17181;51.002;4.096;2023-08-06T00:57:55;16.30;99.90
30385;DHT22;17181;51.002;4.096;2023-08-06T01:00:22;16.20;99.90
30385;DHT22;17181;51.002;4.096;2023-08-06T01:02:49;16.20;99.90
30385;DHT22;17181;51.002;4.096;2023-08-06T01:05:15;16.30;99.90
30385;DHT22;17181;51.002;4.096;2023-08-06T01:13:46;16.30;99.90
30385;DHT22;17181;51.002;4.096;2023-08-06T01:16:17;16.40;99.90
30385;DHT22;17181;51.002;4.096;2023-08-06T01:18:44;16.40;99.90
30385;DHT22;17181;51.002;4.096;2023-08-06T01:21:15;16.50;99.90
30385;DHT22;17181;51.002;4.096;2023-08-06T01:23:45;16.50;99.90
30385;DHT22;17181;51.002;4.096;2023-08-06T01:26:30;16.60;99.90
30385;DHT22;17181;51.002;4.096;2023-08-06T01:32:20;16.60;99.90
30385;DHT22;17181;51.002;4.096;2023-08-06T01:34:47;16.60;99.90
30385;DHT22;17181;51.002;4.096;2023-08-06T01:37:14;16.70;99.90
30385;DHT22;17181;51.002;4.096;2023-08-06T01:39:42;16.70;99.90
30385;DHT22;17181;51.002;4.096;2023-08-06T01:42:08;16.70;99.90
30385;DHT22;17181;51.002;4.096;2023-08-06T01:44:34;16.70;99.90
30385;DHT22;17181;51.002;4.096;2023-08-06T01:47:00;16.70;99.90
30385;DHT22;17181;51.002;4.096;2023-08-06T01:49:26;16.70;99.90
30385;DHT22;17181;51.002;4.096;2023-08-06T01:51:53;16.70;99.90
30385;DHT22;17181;51.002;4.096;2023-08-06T01:54:19;16.70;99.90
30385;DHT22;17181;51.002;4.096;2023-08-06T01:56:45;16.80;99.90
30385;DHT22;17181;51.002;4.096;2023-08-06T01:59:11;16.80;99.90
30385;DHT22;17181;51.002;4.096;2023-08-06T02:01:36;16.80;99.90
30385;DHT22;17181;51.002;4.096;2023-08-06T02:04:03;16.80;99.90
30385;DHT22;17181;51.002;4.096;2023-08-06T02:06:29;16.80;99.90
30385;DHT22;17181;51.002;4.096;2023-08-06T02:08:54;16.80;99.90
30385;DHT22;17181;51.002;4.096;2023-08-06T02:11:20;16.80;99.90
30385;DHT22;17181;51.002;4.096;2023-08-06T02:13:46;16.80;99.90
30385;DHT22;17181;51.002;4.096;2023-08-06T02:16:17;16.70;99.90
30385;DHT22;17181;51.002;4.096;2023-08-06T02:18:43;16.70;99.90
30385;DHT22;17181;51.002;4.096;2023-08-06T02:21:09;16.70;99.90
30385;DHT22;17181;51.002;4.096;2023-08-06T02:23:35;16.60;99.90
30385;DHT22;17181;51.002;4.096;2023-08-06T02:26:04;16.60;99.90
30385;DHT22;17181;51.002;4.096;2023-08-06T02:28:33;16.60;99.90
30385;DHT22;17181;51.002;4.096;2023-08-06T02:30:59;16.50;99.90
30385;DHT22;17181;51.002;4.096;2023-08-06T02:33:25;16.50;99.90
30385;DHT22;17181;51.002;4.096;2023-08-06T02:35:51;16.50;99.90
30385;DHT22;17181;51.002;4.096;2023-08-06T02:38:16;16.50;99.90
30385;DHT22;17181;51.002;4.096;2023-08-06T02:40:46;16.40;99.90
30385;DHT22;17181;51.002;4.096;2023-08-06T02:43:15;16.40;99.90
30385;DHT22;17181;51.002;4.096;2023-08-06T02:45:41;16.40;99.90
30385;DHT22;17181;51.002;4.096;2023-08-06T02:48:11;16.40;99.90
30385;DHT22;17181;51.002;4.096;2023-08-06T02:50:41;16.40;99.90
30385;DHT22;17181;51.002;4.096;2023-08-06T02:53:11;16.40;99.90
30385;DHT22;17181;51.002;4.096;2023-08-06T02:56:03;16.30;99.90
30385;DHT22;17181;51.002;4.096;2023-08-06T03:07:41;16.20;99.90
30385;DHT22;17181;51.002;4.096;2023-08-06T03:17:49;16.20;99.90
30385;DHT22;17181;51.002;4.096;2023-08-06T03:20:30;16.10;99.90
30385;DHT22;17181;51.002;4.096;2023-08-06T03:22:57;15.90;99.90
30385;DHT22;17181;51.002;4.096;2023-08-06T03:25:24;15.90;99.90
30385;DHT22;17181;51.002;4.096;2023-08-06T03:27:51;15.90;99.90
30385;DHT22;17181;51.002;4.096;2023-08-06T03:30:19;15.70;99.90
30385;DHT22;17181;51.002;4.096;2023-08-06T03:32:50;15.60;99.90
30385;DHT22;17181;51.002;4.096;2023-08-06T03:35:20;15.40;99.90
30385;DHT22;17181;51.002;4.096;2023-08-06T03:37:49;15.40;99.90
30385;DHT22;17181;51.002;4.096;2023-08-06T03:40:16;15.30;99.90
30385;DHT22;17181;51.002;4.096;2023-08-06T03:42:42;15.30;99.90
30385;DHT22;17181;51.002;4.096;2023-08-06T03:45:08;15.30;99.90
30385;DHT22;17181;51.002;4.096;2023-08-06T03:47:35;15.30;99.90
30385;DHT22;17181;51.002;4.096;2023-08-06T03:50:02;15.30;99.90
30385;DHT22;17181;51.002;4.096;2023-08-06T03:52:28;15.30;99.90
30385;DHT22;17181;51.002;4.096;2023-08-06T03:54:54;15.30;99.90
30385;DHT22;17181;51.002;4.096;2023-08-06T03:57:22;15.30;99.90
30385;DHT22;17181;51.002;4.096;2023-08-06T03:59:48;15.30;99.90
30385;DHT22;17181;51.002;4.096;2023-08-06T04:02:14;15.30;99.90
30385;DHT22;17181;51.002;4.096;2023-08-06T04:04:39;15.30;99.90
30385;DHT22;17181;51.002;4.096;2023-08-06T04:07:05;15.20;99.90
30385;DHT22;17181;51.002;4.096;2023-08-06T04:09:31;15.20;99.90
30385;DHT22;17181;51.002;4.096;2023-08-06T04:11:57;15.20;99.90
30385;DHT22;17181;51.002;4.096;2023-08-06T04:14:26;15.10;99.90
30385;DHT22;17181;51.002;4.096;2023-08-06T04:16:51;15.00;99.90
30385;DHT22;17181;51.002;4.096;2023-08-06T04:19:17;15.00;99.90
30385;DHT22;17181;51.002;4.096;2023-08-06T04:21:43;15.00;99.90
30385;DHT22;17181;51.002;4.096;2023-08-06T04:24:13;15.00;99.90
30385;DHT22;17181;51.002;4.096;2023-08-06T04:26:39;15.00;99.90
30385;DHT22;17181;51.002;4.096;2023-08-06T04:29:05;15.00;99.90
30385;DHT22;17181;51.002;4.096;2023-08-06T04:31:32;14.90;99.90
30385;DHT22;17181;51.002;4.096;2023-08-06T04:34:01;14.90;99.90
30385;DHT22;17181;51.002;4.096;2023-08-06T04:36:27;15.00;99.90
30385;DHT22;17181;51.002;4.096;2023-08-06T04:38:53;15.00;99.90
30385;DHT22;17181;51.002;4.096;2023-08-06T04:41:19;15.00;99.90
30385;DHT22;17181;51.002;4.096;2023-08-06T04:43:45;15.00;99.90
30385;DHT22;17181;51.002;4.096;2023-08-06T04:46:11;15.00;99.90
30385;DHT22;17181;51.002;4.096;2023-08-06T04:48:37;15.10;99.90
30385;DHT22;17181;51.002;4.096;2023-08-06T04:51:03;15.10;99.90
30385;DHT22;17181;51.002;4.096;2023-08-06T04:53:29;15.10;99.90
30385;DHT22;17181;51.002;4.096;2023-08-06T04:55:55;15.10;99.90
30385;DHT22;17181;51.002;4.096;2023-08-06T04:58:20;15.10;99.90
30385;DHT22;17181;51.002;4.096;2023-08-06T05:00:46;15.20;99.90
30385;DHT22;17181;51.002;4.096;2023-08-06T05:03:12;15.20;99.90
30385;DHT22;17181;51.002;4.096;2023-08-06T05:05:40;15.20;99.90
30385;DHT22;17181;51.002;4.096;2023-08-06T05:08:07;15.20;99.90
30385;DHT22;17181;51.002;4.096;2023-08-06T05:10:33;15.20;99.90
30385;DHT22;17181;51.002;4.096;2023-08-06T05:13:00;15.20;99.90
30385;DHT22;17181;51.002;4.096;2023-08-06T05:15:29;15.30;99.90
30385;DHT22;17181;51.002;4.096;2023-08-06T05:17:55;15.20;99.90
30385;DHT22;17181;51.002;4.096;2023-08-06T05:20:21;15.20;99.90
30385;DHT22;17181;51.002;4.096;2023-08-06T05:22:47;15.20;99.90
30385;DHT22;17181;51.002;4.096;2023-08-06T05:25:14;15.10;99.90
30385;DHT22;17181;51.002;4.096;2023-08-06T05:27:40;15.10;99.90
30385;DHT22;17181;51.002;4.096;2023-08-06T05:30:07;15.00;99.90
30385;DHT22;17181;51.002;4.096;2023-08-06T05:32:34;15.00;99.90
30385;DHT22;17181;51.002;4.096;2023-08-06T05:35:00;15.10;99.90
30385;DHT22;17181;51.002;4.096;2023-08-06T05:37:28;15.00;99.90
30385;DHT22;17181;51.002;4.096;2023-08-06T05:39:54;15.00;99.90
30385;DHT22;17181;51.002;4.096;2023-08-06T05:42:20;15.00;99.90
30385;DHT22;17181;51.002;4.096;2023-08-06T05:44:46;15.00;99.90
30385;DHT22;17181;51.002;4.096;2023-08-06T05:47:12;15.00;99.90
30385;DHT22;17181;51.002;4.096;2023-08-06T05:49:38;14.90;99.90
30385;DHT22;17181;51.002;4.096;2023-08-06T05:52:04;15.00;99.90
30385;DHT22;17181;51.002;4.096;2023-08-06T05:54:32;15.00;99.90
30385;DHT22;17181;51.002;4.096;2023-08-06T05:56:57;15.00;99.90
30385;DHT22;17181;51.002;4.096;2023-08-06T05:59:23;15.00;99.90
30385;DHT22;17181;51.002;4.096;2023-08-06T06:01:49;15.10;99.90
30385;DHT22;17181;51.002;4.096;2023-08-06T06:04:15;15.10;99.90
30385;DHT22;17181;51.002;4.096;2023-08-06T06:06:40;15.10;99.90
30385;DHT22;17181;51.002;4.096;2023-08-06T06:09:07;15.10;99.90
30385;DHT22;17181;51.002;4.096;2023-08-06T06:11:33;15.10;99.90
30385;DHT22;17181;51.002;4.096;2023-08-06T06:14:00;15.10;99.90
30385;DHT22;17181;51.002;4.096;2023-08-06T06:16:26;15.10;99.90
30385;DHT22;17181;51.002;4.096;2023-08-06T06:18:52;15.20;99.90
30385;DHT22;17181;51.002;4.096;2023-08-06T06:21:20;15.20;99.90
30385;DHT22;17181;51.002;4.096;2023-08-06T06:23:46;15.20;99.90
30385;DHT22;17181;51.002;4.096;2023-08-06T06:26:12;15.20;99.90
30385;DHT22;17181;51.002;4.096;2023-08-06T06:28:38;15.20;99.90
30385;DHT22;17181;51.002;4.096;2023-08-06T06:31:04;15.30;99.90
30385;DHT22;17181;51.002;4.096;2023-08-06T06:33:30;15.30;99.90
30385;DHT22;17181;51.002;4.096;2023-08-06T06:35:55;15.30;99.90
30385;DHT22;17181;51.002;4.096;2023-08-06T06:38:21;15.30;99.90
30385;DHT22;17181;51.002;4.096;2023-08-06T06:40:55;15.20;99.90
30385;DHT22;17181;51.002;4.096;2023-08-06T06:43:21;15.10;99.90
30385;DHT22;17181;51.002;4.096;2023-08-06T06:45:47;15.10;99.90
30385;DHT22;17181;51.002;4.096;2023-08-06T06:48:17;15.10;99.90
30385;DHT22;17181;51.002;4.096;2023-08-06T06:50:46;15.20;99.90
30385;DHT22;17181;51.002;4.096;2023-08-06T06:53:12;15.20;99.90
30385;DHT22;17181;51.002;4.096;2023-08-06T06:55:38;15.20;99.90
30385;DHT22;17181;51.002;4.096;2023-08-06T06:58:04;15.30;99.90
30385;DHT22;17181;51.002;4.096;2023-08-06T07:00:30;15.30;99.90
30385;DHT22;17181;51.002;4.096;2023-08-06T07:02:56;15.40;99.90
30385;DHT22;17181;51.002;4.096;2023-08-06T07:05:22;15.40;99.90
30385;DHT22;17181;51.002;4.096;2023-08-06T07:07:48;15.40;99.90
30385;DHT22;17181;51.002;4.096;2023-08-06T07:10:13;15.40;99.90
30385;DHT22;17181;51.002;4.096;2023-08-06T07:12:39;15.40;99.90
30385;DHT22;17181;51.002;4.096;2023-08-06T07:15:09;15.40;99.90
30385;DHT22;17181;51.002;4.096;2023-08-06T07:17:35;15.40;99.90
30385;DHT22;17181;51.002;4.096;2023-08-06T07:20:01;15.40;99.90
30385;DHT22;17181;51.002;4.096;2023-08-06T07:22:27;15.40;99.90
30385;DHT22;17181;51.002;4.096;2023-08-06T07:24:52;15.40;99.90
30385;DHT22;17181;51.002;4.096;2023-08-06T07:27:18;15.50;99.90
30385;DHT22;17181;51.002;4.096;2023-08-06T07:29:44;15.60;99.90
30385;DHT22;17181;51.002;4.096;2023-08-06T07:32:10;15.60;99.90
30385;DHT22;17181;51.002;4.096;2023-08-06T07:34:36;15.70;99.90
30385;DHT22;17181;51.002;4.096;2023-08-06T07:37:02;15.70;99.90
30385;DHT22;17181;51.002;4.096;2023-08-06T07:39:28;15.80;99.90
30385;DHT22;17181;51.002;4.096;2023-08-06T07:41:54;15.80;99.90
30385;DHT22;17181;51.002;4.096;2023-08-06T07:44:23;15.80;99.90
30385;DHT22;17181;51.002;4.096;2023-08-06T07:46:52;15.90;99.90
30385;DHT22;17181;51.002;4.096;2023-08-06T07:49:18;15.90;99.90
30385;DHT22;17181;51.002;4.096;2023-08-06T07:51:46;16.00;99.90
30385;DHT22;17181;51.002;4.096;2023-08-06T07:54:12;16.00;99.90
30385;DHT22;17181;51.002;4.096;2023-08-06T07:56:38;16.00;99.90
30385;DHT22;17181;51.002;4.096;2023-08-06T07:59:04;16.00;99.90
30385;DHT22;17181;51.002;4.096;2023-08-06T08:01:30;16.00;99.90
30385;DHT22;17181;51.002;4.096;2023-08-06T08:03:56;16.00;99.90
30385;DHT22;17181;51.002;4.096;2023-08-06T08:06:32;15.80;99.90
30385;DHT22;17181;51.002;4.096;2023-08-06T08:09:00;15.80;99.90
30385;DHT22;17181;51.002;4.096;2023-08-06T08:11:26;15.70;99.90
30385;DHT22;17181;51.002;4.096;2023-08-06T08:13:52;15.50;99.90
30385;DHT22;17181;51.002;4.096;2023-08-06T08:16:18;15.50;99.90
30385;DHT22;17181;51.002;4.096;2023-08-06T08:18:43;15.40;99.90
30385;DHT22;17181;51.002;4.096;2023-08-06T08:21:09;15.30;99.90
30385;DHT22;17181;51.002;4.096;2023-08-06T08:23:35;15.30;99.90
30385;DHT22;17181;51.002;4.096;2023-08-06T08:26:01;15.30;99.90
30385;DHT22;17181;51.002;4.096;2023-08-06T08:28:27;15.20;99.90
30385;DHT22;17181;51.002;4.096;2023-08-06T08:30:53;15.30;99.90
30385;DHT22;17181;51.002;4.096;2023-08-06T08:33:21;15.20;99.90
30385;DHT22;17181;51.002;4.096;2023-08-06T08:35:47;15.20;99.90
30385;DHT22;17181;51.002;4.096;2023-08-06T08:38:13;15.20;99.90
30385;DHT22;17181;51.002;4.096;2023-08-06T08:40:46;15.20;99.90
30385;DHT22;17181;51.002;4.096;2023-08-06T08:43:15;15.30;99.90
30385;DHT22;17181;51.002;4.096;2023-08-06T08:45:46;15.30;99.90
30385;DHT22;17181;51.002;4.096;2023-08-06T08:48:16;15.30;99.90
30385;DHT22;17181;51.002;4.096;2023-08-06T08:50:44;15.30;99.90
30385;DHT22;17181;51.002;4.096;2023-08-06T08:53:11;15.40;99.90
30385;DHT22;17181;51.002;4.096;2023-08-06T08:55:38;15.40;99.90
30385;DHT22;17181;51.002;4.096;2023-08-06T08:58:05;15.40;99.90
30385;DHT22;17181;51.002;4.096;2023-08-06T09:00:31;15.40;99.90
30385;DHT22;17181;51.002;4.096;2023-08-06T09:02:59;15.30;99.90
30385;DHT22;17181;51.002;4.096;2023-08-06T09:05:27;15.30;99.90
30385;DHT22;17181;51.002;4.096;2023-08-06T09:07:55;15.20;99.90
30385;DHT22;17181;51.002;4.096;2023-08-06T09:10:23;15.10;99.90
30385;DHT22;17181;51.002;4.096;2023-08-06T09:12:51;15.00;99.90
30385;DHT22;17181;51.002;4.096;2023-08-06T09:15:20;15.00;99.90
30385;DHT22;17181;51.002;4.096;2023-08-06T09:17:46;15.00;99.90
30385;DHT22;17181;51.002;4.096;2023-08-06T09:20:12;15.00;99.90
30385;DHT22;17181;51.002;4.096;2023-08-06T09:22:39;15.10;99.90
30385;DHT22;17181;51.002;4.096;2023-08-06T09:25:07;15.00;99.90
30385;DHT22;17181;51.002;4.096;2023-08-06T09:27:38;15.00;99.90
30385;DHT22;17181;51.002;4.096;2023-08-06T09:30:06;15.00;99.90
30385;DHT22;17181;51.002;4.096;2023-08-06T09:32:48;15.00;99.90
30385;DHT22;17181;51.002;4.096;2023-08-06T09:35:18;15.00;99.90
30385;DHT22;17181;51.002;4.096;2023-08-06T09:37:44;15.00;99.90
30385;DHT22;17181;51.002;4.096;2023-08-06T09:40:32;15.00;99.90
30385;DHT22;17181;51.002;4.096;2023-08-06T09:42:59;15.00;99.90
30385;DHT22;17181;51.002;4.096;2023-08-06T09:45:32;15.00;99.90
30385;DHT22;17181;51.002;4.096;2023-08-06T09:48:00;15.00;99.90
30385;DHT22;17181;51.002;4.096;2023-08-06T09:50:30;15.10;99.90
30385;DHT22;17181;51.002;4.096;2023-08-06T09:53:01;15.10;99.90
30385;DHT22;17181;51.002;4.096;2023-08-06T09:55:27;15.10;99.90
30385;DHT22;17181;51.002;4.096;2023-08-06T09:57:54;15.10;99.90
30385;DHT22;17181;51.002;4.096;2023-08-06T10:00:20;15.10;99.90
30385;DHT22;17181;51.002;4.096;2023-08-06T10:02:47;15.10;99.90
30385;DHT22;17181;51.002;4.096;2023-08-06T10:05:15;15.00;99.90
30385;DHT22;17181;51.002;4.096;2023-08-06T10:07:43;15.00;99.90
30385;DHT22;17181;51.002;4.096;2023-08-06T10:10:09;15.00;99.90
30385;DHT22;17181;51.002;4.096;2023-08-06T10:12:48;15.00;99.90
30385;DHT22;17181;51.002;4.096;2023-08-06T10:15:19;15.10;99.90
30385;DHT22;17181;51.002;4.096;2023-08-06T10:17:47;15.00;99.90
30385;DHT22;17181;51.002;4.096;2023-08-06T10:20:14;15.00;99.90
30385;DHT22;17181;51.002;4.096;2023-08-06T10:22:44;15.10;99.90
30385;DHT22;17181;51.002;4.096;2023-08-06T10:25:11;15.10;99.90
30385;DHT22;17181;51.002;4.096;2023-08-06T10:27:54;15.30;99.90
30385;DHT22;17181;51.002;4.096;2023-08-06T10:30:31;15.30;99.90
30385;DHT22;17181;51.002;4.096;2023-08-06T10:33:02;15.30;99.90
30385;DHT22;17181;51.002;4.096;2023-08-06T10:35:41;15.30;99.90
30385;DHT22;17181;51.002;4.096;2023-08-06T10:41:03;15.20;99.90
30385;DHT22;17181;51.002;4.096;2023-08-06T10:43:33;15.10;99.90
30385;DHT22;17181;51.002;4.096;2023-08-06T10:46:02;15.10;99.90
30385;DHT22;17181;51.002;4.096;2023-08-06T10:48:35;15.10;99.90
30385;DHT22;17181;51.002;4.096;2023-08-06T10:51:02;15.10;99.90
30385;DHT22;17181;51.002;4.096;2023-08-06T10:53:28;15.10;99.90
30385;DHT22;17181;51.002;4.096;2023-08-06T10:55:54;15.00;99.90
30385;DHT22;17181;51.002;4.096;2023-08-06T10:58:20;15.10;99.90
30385;DHT22;17181;51.002;4.096;2023-08-06T11:00:46;15.00;99.90
30385;DHT22;17181;51.002;4.096;2023-08-06T11:03:12;15.00;99.90
30385;DHT22;17181;51.002;4.096;2023-08-06T11:05:38;15.00;99.90
30385;DHT22;17181;51.002;4.096;2023-08-06T11:08:04;15.00;99.90
30385;DHT22;17181;51.002;4.096;2023-08-06T11:10:33;14.90;99.90
30385;DHT22;17181;51.002;4.096;2023-08-06T11:13:02;14.80;99.90
30385;DHT22;17181;51.002;4.096;2023-08-06T11:15:30;14.80;99.90
30385;DHT22;17181;51.002;4.096;2023-08-06T11:17:56;14.80;99.90
30385;DHT22;17181;51.002;4.096;2023-08-06T11:20:23;14.70;99.90
30385;DHT22;17181;51.002;4.096;2023-08-06T11:22:50;14.70;99.90
30385;DHT22;17181;51.002;4.096;2023-08-06T11:25:19;14.70;99.90
30385;DHT22;17181;51.002;4.096;2023-08-06T11:27:45;14.70;99.90
30385;DHT22;17181;51.002;4.096;2023-08-06T11:30:11;14.70;99.90
30385;DHT22;17181;51.002;4.096;2023-08-06T11:32:48;14.80;99.90
30385;DHT22;17181;51.002;4.096;2023-08-06T11:35:15;14.80;99.90
30385;DHT22;17181;51.002;4.096;2023-08-06T11:37:45;14.80;99.90
30385;DHT22;17181;51.002;4.096;2023-08-06T11:40:14;14.80;99.90
30385;DHT22;17181;51.002;4.096;2023-08-06T11:42:40;14.80;99.90
30385;DHT22;17181;51.002;4.096;2023-08-06T11:45:08;14.90;99.90
30385;DHT22;17181;51.002;4.096;2023-08-06T11:47:38;14.90;99.90
30385;DHT22;17181;51.002;4.096;2023-08-06T11:50:05;15.00;99.90
30385;DHT22;17181;51.002;4.096;2023-08-06T11:52:31;15.10;99.90
30385;DHT22;17181;51.002;4.096;2023-08-06T11:55:04;15.20;99.90
30385;DHT22;17181;51.002;4.096;2023-08-06T11:57:36;15.40;99.90
30385;DHT22;17181;51.002;4.096;2023-08-06T12:00:23;15.50;99.90
30385;DHT22;17181;51.002;4.096;2023-08-06T12:02:49;15.60;99.90
30385;DHT22;17181;51.002;4.096;2023-08-06T12:05:20;15.70;99.90
30385;DHT22;17181;51.002;4.096;2023-08-06T12:07:48;15.70;99.90
30385;DHT22;17181;51.002;4.096;2023-08-06T12:10:15;15.80;99.90
30385;DHT22;17181;51.002;4.096;2023-08-06T12:12:47;15.90;99.90
30385;DHT22;17181;51.002;4.096;2023-08-06T12:15:20;16.00;99.90
30385;DHT22;17181;51.002;4.096;2023-08-06T12:17:49;15.90;99.90
30385;DHT22;17181;51.002;4.096;2023-08-06T12:20:15;15.70;99.90
30385;DHT22;17181;51.002;4.096;2023-08-06T12:22:45;15.60;99.90
30385;DHT22;17181;51.002;4.096;2023-08-06T12:25:12;15.50;99.90
30385;DHT22;17181;51.002;4.096;2023-08-06T12:27:39;15.50;99.90
30385;DHT22;17181;51.002;4.096;2023-08-06T12:30:06;15.40;99.90
30385;DHT22;17181;51.002;4.096;2023-08-06T12:32:35;15.30;99.90
30385;DHT22;17181;51.002;4.096;2023-08-06T12:35:05;15.40;99.90
30385;DHT22;17181;51.002;4.096;2023-08-06T12:37:33;15.60;99.90
30385;DHT22;17181;51.002;4.096;2023-08-06T12:39:59;15.50;99.90
30385;DHT22;17181;51.002;4.096;2023-08-06T12:42:24;15.40;99.90
30385;DHT22;17181;51.002;4.096;2023-08-06T12:44:51;15.40;99.90
30385;DHT22;17181;51.002;4.096;2023-08-06T12:47:17;15.30;99.90
30385;DHT22;17181;51.002;4.096;2023-08-06T12:49:43;15.30;99.90
30385;DHT22;17181;51.002;4.096;2023-08-06T12:52:09;15.20;99.90
30385;DHT22;17181;51.002;4.096;2023-08-06T12:54:35;15.20;99.90
30385;DHT22;17181;51.002;4.096;2023-08-06T12:57:03;15.10;99.90
30385;DHT22;17181;51.002;4.096;2023-08-06T12:59:29;15.10;99.90
30385;DHT22;17181;51.002;4.096;2023-08-06T13:01:57;15.10;99.90
30385;DHT22;17181;51.002;4.096;2023-08-06T13:04:25;15.10;99.90
30385;DHT22;17181;51.002;4.096;2023-08-06T13:06:57;15.00;99.90
30385;DHT22;17181;51.002;4.096;2023-08-06T13:09:25;15.00;99.90
30385;DHT22;17181;51.002;4.096;2023-08-06T13:11:56;15.00;99.90
30385;DHT22;17181;51.002;4.096;2023-08-06T13:14:24;15.00;99.90
30385;DHT22;17181;51.002;4.096;2023-08-06T13:16:53;15.00;99.90
30385;DHT22;17181;51.002;4.096;2023-08-06T13:19:21;14.90;99.90
30385;DHT22;17181;51.002;4.096;2023-08-06T14:01:13;14.80;99.90
30385;DHT22;17181;51.002;4.096;2023-08-06T17:38:17;19.60;99.90
30385;DHT22;17181;51.002;4.096;2023-08-06T17:40:42;19.60;99.90
30385;DHT22;17181;51.002;4.096;2023-08-06T17:43:08;19.50;99.90
30385;DHT22;17181;51.002;4.096;2023-08-06T17:45:35;19.30;99.90
30385;DHT22;17181;51.002;4.096;2023-08-06T17:48:01;19.10;99.90
30385;DHT22;17181;51.002;4.096;2023-08-06T17:50:27;18.90;99.90
30385;DHT22;17181;51.002;4.096;2023-08-06T17:52:53;18.80;99.90
30385;DHT22;17181;51.002;4.096;2023-08-06T17:55:19;18.70;99.90
30385;DHT22;17181;51.002;4.096;2023-08-06T17:57:45;18.50;99.90
30385;DHT22;17181;51.002;4.096;2023-08-06T18:00:11;18.30;99.90
30385;DHT22;17181;51.002;4.096;2023-08-06T18:02:37;18.10;99.90
30385;DHT22;17181;51.002;4.096;2023-08-06T18:05:03;18.00;99.90
30385;DHT22;17181;51.002;4.096;2023-08-06T18:07:29;17.90;99.90
30385;DHT22;17181;51.002;4.096;2023-08-06T18:09:55;17.80;99.90
30385;DHT22;17181;51.002;4.096;2023-08-06T18:12:21;17.70;99.90
30385;DHT22;17181;51.002;4.096;2023-08-06T18:14:47;17.70;99.90
30385;DHT22;17181;51.002;4.096;2023-08-06T18:17:12;17.70;99.90
30385;DHT22;17181;51.002;4.096;2023-08-06T18:19:39;17.60;99.90
30385;DHT22;17181;51.002;4.096;2023-08-06T18:22:05;17.60;99.90
30385;DHT22;17181;51.002;4.096;2023-08-06T18:24:31;17.50;99.90
30385;DHT22;17181;51.002;4.096;2023-08-06T18:27:00;17.50;99.90
30385;DHT22;17181;51.002;4.096;2023-08-06T18:29:27;17.40;99.90
30385;DHT22;17181;51.002;4.096;2023-08-06T18:31:57;17.30;99.90
30385;DHT22;17181;51.002;4.096;2023-08-06T18:34:28;17.20;99.90
30385;DHT22;17181;51.002;4.096;2023-08-06T18:36:57;17.10;99.90
30385;DHT22;17181;51.002;4.096;2023-08-06T18:39:23;17.00;99.90
30385;DHT22;17181;51.002;4.096;2023-08-06T18:41:49;17.00;99.90
30385;DHT22;17181;51.002;4.096;2023-08-06T18:44:16;17.00;99.90
30385;DHT22;17181;51.002;4.096;2023-08-06T18:46:41;17.00;99.90
30385;DHT22;17181;51.002;4.096;2023-08-06T18:49:07;17.00;99.90
30385;DHT22;17181;51.002;4.096;2023-08-06T18:55:01;16.90;99.90
30385;DHT22;17181;51.002;4.096;2023-08-06T18:57:27;16.90;99.90
30385;DHT22;17181;51.002;4.096;2023-08-06T18:59:55;16.80;99.90
30385;DHT22;17181;51.002;4.096;2023-08-06T19:02:21;16.80;99.90
30385;DHT22;17181;51.002;4.096;2023-08-06T19:04:47;16.70;99.90
30385;DHT22;17181;51.002;4.096;2023-08-06T19:26:11;16.40;99.90
30385;DHT22;17181;51.002;4.096;2023-08-06T19:28:36;16.40;99.90
30385;DHT22;17181;51.002;4.096;2023-08-06T19:31:03;16.30;99.90
30385;DHT22;17181;51.002;4.096;2023-08-06T19:33:31;16.30;99.90
30385;DHT22;17181;51.002;4.096;2023-08-06T19:36:05;16.30;99.90
30385;DHT22;17181;51.002;4.096;2023-08-06T19:38:36;16.30;99.90
30385;DHT22;17181;51.002;4.096;2023-08-06T19:41:08;16.20;99.90
30385;DHT22;17181;51.002;4.096;2023-08-06T19:43:37;16.20;99.90
30385;DHT22;17181;51.002;4.096;2023-08-06T19:46:04;16.10;99.90
30385;DHT22;17181;51.002;4.096;2023-08-06T19:48:33;16.20;99.90
30385;DHT22;17181;51.002;4.096;2023-08-06T19:50:59;16.10;99.90
30385;DHT22;17181;51.002;4.096;2023-08-06T19:53:32;16.00;99.90
30385;DHT22;17181;51.002;4.096;2023-08-06T19:55:59;16.00;99.90
30385;DHT22;17181;51.002;4.096;2023-08-06T19:58:54;15.90;99.90
30385;DHT22;17181;51.002;4.096;2023-08-06T20:05:11;16.00;99.90
30385;DHT22;17181;51.002;4.096;2023-08-06T20:07:37;15.90;99.90
30385;DHT22;17181;51.002;4.096;2023-08-06T20:10:09;15.80;99.90
30385;DHT22;17181;51.002;4.096;2023-08-06T20:12:49;15.80;99.90
